This is the latest recevied weather packets stored in our database for station/object LA9UTA-13. If no packets are shown the sender has not sent any weather packets the latest 10 day(s).
| Time | Temp. | Humidity | Pressure | Rain* | Wind** | Luminosity | Snow |
|---|---|---|---|---|---|---|---|
| 1777911481 | 11.67° C | 44% | 1003 hPa | 0 mm | - | 110 W/m² | - |
| 1777910282 | 12.22° C | 39% | 1002.9 hPa | 0 mm | - | 100 W/m² | - |
| 1777909082 | 12.78° C | 39% | 1002.9 hPa | 0 mm | - | 180 W/m² | - |
| 1777907882 | 14.44° C | 35% | 1002.7 hPa | 0 mm | - | 376 W/m² | - |
| 1777906681 | 14.44° C | 34% | 1003.7 hPa | 0 mm | - | 371 W/m² | - |
| 1777905481 | 13.89° C | 34% | 1002.8 hPa | 0 mm | - | 461 W/m² | - |
| 1777904282 | 12.78° C | 36% | 1003.9 hPa | 0 mm | - | 207 W/m² | - |
| 1777903082 | 12.78° C | 35% | 1003.9 hPa | 0 mm | - | 152 W/m² | - |
| 1777901882 | 13.89° C | 32% | 1003.8 hPa | 0 mm | - | 341 W/m² | - |
| 1777900681 | 13.33° C | 33% | 1003.8 hPa | 0 mm | - | 176 W/m² | - |
| 1777899482 | 12.78° C | 32% | 1003.8 hPa | 0 mm | - | 107 W/m² | - |
| 1777898281 | 13.89° C | 30% | 1003.7 hPa | 0 mm | - | 74 W/m² | - |
| 1777897081 | 13.33° C | 30% | 1003.8 hPa | 0 mm | - | 541 W/m² | - |
| 1777895882 | 13.33° C | 30% | 1003.8 hPa | 0 mm | - | 554 W/m² | - |
| 1777894681 | 12.78° C | 31% | 1003.9 hPa | 0 mm | - | 560 W/m² | - |
| 1777893482 | 13.33° C | 33% | 1003.8 hPa | 0 mm | - | 560 W/m² | - |
| 1777892281 | 12.78° C | 33% | 1003.9 hPa | 0 mm | - | 567 W/m² | - |
| 1777891082 | 12.22° C | 32% | 1003.9 hPa | 0 mm | - | 298 W/m² | - |
| 1777889881 | 12.22° C | 31% | 1003.9 hPa | 0 mm | - | 560 W/m² | - |
| 1777888682 | 11.67° C | 36% | 1004 hPa | 0 mm | - | 555 W/m² | - |
| 1777887482 | 10.56° C | 39% | 1004.1 hPa | 0 mm | - | 522 W/m² | - |
| 1777886282 | 10.56° C | 40% | 1004.1 hPa | 0 mm | - | 493 W/m² | - |
| 1777885082 | 10° C | 43% | 1004.2 hPa | 0 mm | - | 303 W/m² | - |
| 1777883881 | 10° C | 43% | 1004.1 hPa | 0 mm | - | 192 W/m² | - |
| 1777882682 | 10° C | 45% | 1004.2 hPa | 0 mm | - | 417 W/m² | - |
* Rain latest hour (hover to see other rain measurements)
** Current wind speed in m/s (hover to see current wind gust speed)